sensor_id;sensor_type;location;lat;lon;timestamp;pressure;altitude;pressure_sealevel;temperature;humidity
69214;BME280;56325;47.030;18.518;2023-05-03T00:00:17;100730.22;;;14.65;94.72
69214;BME280;56325;47.030;18.518;2023-05-03T00:02:53;100728.87;;;14.75;94.37
69214;BME280;56325;47.030;18.518;2023-05-03T00:05:29;100720.84;;;14.77;93.56
69214;BME280;56325;47.030;18.518;2023-05-03T00:08:05;100740.22;;;14.38;96.23
69214;BME280;56325;47.030;18.518;2023-05-03T00:10:40;100738.50;;;14.65;95.08
69214;BME280;56325;47.030;18.518;2023-05-03T00:13:15;100729.34;;;14.88;93.95
69214;BME280;56325;47.030;18.518;2023-05-03T00:15:49;100732.22;;;14.79;93.73
69214;BME280;56325;47.030;18.518;2023-05-03T00:18:24;100727.63;;;14.76;94.42
69214;BME280;56325;47.030;18.518;2023-05-03T00:20:59;100737.72;;;14.50;95.00
69214;BME280;56325;47.030;18.518;2023-05-03T00:23:35;100738.97;;;14.49;95.65
69214;BME280;56325;47.030;18.518;2023-05-03T00:26:09;100727.91;;;14.63;95.04
69214;BME280;56325;47.030;18.518;2023-05-03T00:28:44;100732.03;;;14.68;94.40
69214;BME280;56325;47.030;18.518;2023-05-03T00:31:19;100727.91;;;14.78;94.44
69214;BME280;56325;47.030;18.518;2023-05-03T00:33:53;100730.69;;;14.78;94.08
69214;BME280;56325;47.030;18.518;2023-05-03T00:36:28;100722.31;;;14.72;94.28
69214;BME280;56325;47.030;18.518;2023-05-03T00:39:04;100730.41;;;14.61;95.08
69214;BME280;56325;47.030;18.518;2023-05-03T00:41:39;100727.06;;;14.87;93.55
69214;BME280;56325;47.030;18.518;2023-05-03T00:44:14;100728.31;;;14.71;93.99
69214;BME280;56325;47.030;18.518;2023-05-03T00:46:48;100732.22;;;14.64;94.78
69214;BME280;56325;47.030;18.518;2023-05-03T00:49:23;100725.03;;;14.58;95.61
69214;BME280;56325;47.030;18.518;2023-05-03T00:51:58;100727.41;;;14.50;95.82
69214;BME280;56325;47.030;18.518;2023-05-03T00:54:35;100731.34;;;14.34;96.11
69214;BME280;56325;47.030;18.518;2023-05-03T00:57:10;100731.72;;;14.27;97.23
69214;BME280;56325;47.030;18.518;2023-05-03T00:59:45;100737.75;;;14.64;95.29
69214;BME280;56325;47.030;18.518;2023-05-03T01:02:19;100724.56;;;14.74;94.48
69214;BME280;56325;47.030;18.518;2023-05-03T01:04:55;100737.47;;;14.77;93.96
69214;BME280;56325;47.030;18.518;2023-05-03T01:07:42;100730.69;;;14.78;93.94
69214;BME280;56325;47.030;18.518;2023-05-03T01:10:25;100735.37;;;14.72;94.37
69214;BME280;56325;47.030;18.518;2023-05-03T01:13:11;100739.09;;;14.69;94.56
69214;BME280;56325;47.030;18.518;2023-05-03T01:15:55;100733.41;;;14.49;95.39
69214;BME280;56325;47.030;18.518;2023-05-03T01:18:37;100726.66;;;14.50;96.46
69214;BME280;56325;47.030;18.518;2023-05-03T01:21:15;100738.47;;;14.50;95.96
69214;BME280;56325;47.030;18.518;2023-05-03T01:23:56;100723.69;;;14.29;96.97
69214;BME280;56325;47.030;18.518;2023-05-03T01:26:34;100728.66;;;14.25;97.31
69214;BME280;56325;47.030;18.518;2023-05-03T01:29:09;100725.94;;;14.16;98.30
69214;BME280;56325;47.030;18.518;2023-05-03T01:31:49;100720.94;;;14.29;97.91
69214;BME280;56325;47.030;18.518;2023-05-03T01:34:30;100731.34;;;14.34;97.25
69214;BME280;56325;47.030;18.518;2023-05-03T01:37:07;100726.28;;;14.33;97.84
69214;BME280;56325;47.030;18.518;2023-05-03T01:39:47;100728.41;;;14.14;98.78
69214;BME280;56325;47.030;18.518;2023-05-03T01:42:25;100718.78;;;14.09;98.74
69214;BME280;56325;47.030;18.518;2023-05-03T01:45:00;100721.06;;;14.11;98.75
69214;BME280;56325;47.030;18.518;2023-05-03T01:47:36;100729.38;;;14.11;99.27
69214;BME280;56325;47.030;18.518;2023-05-03T01:50:10;100723.75;;;13.96;99.77
69214;BME280;56325;47.030;18.518;2023-05-03T01:52:45;100720.19;;;14.05;99.61
69214;BME280;56325;47.030;18.518;2023-05-03T01:55:21;100713.59;;;14.02;99.34
69214;BME280;56325;47.030;18.518;2023-05-03T01:57:57;100719.81;;;14.12;99.59
69214;BME280;56325;47.030;18.518;2023-05-03T02:00:33;100723.94;;;13.93;100.00
69214;BME280;56325;47.030;18.518;2023-05-03T02:03:07;100713.88;;;14.04;99.79
69214;BME280;56325;47.030;18.518;2023-05-03T02:05:42;100716.22;;;14.21;99.55
69214;BME280;56325;47.030;18.518;2023-05-03T02:08:16;100707.06;;;14.15;98.47
69214;BME280;56325;47.030;18.518;2023-05-03T02:10:51;100711.87;;;14.05;98.86
69214;BME280;56325;47.030;18.518;2023-05-03T02:13:27;100715.75;;;14.22;98.52
69214;BME280;56325;47.030;18.518;2023-05-03T02:16:01;100712.69;;;14.20;98.01
69214;BME280;56325;47.030;18.518;2023-05-03T02:18:36;100712.94;;;14.31;97.69
69214;BME280;56325;47.030;18.518;2023-05-03T02:21:12;100719.47;;;14.19;97.85
69214;BME280;56325;47.030;18.518;2023-05-03T02:23:47;100711.87;;;14.29;97.27
69214;BME280;56325;47.030;18.518;2023-05-03T02:26:21;100715.41;;;14.05;98.64
69214;BME280;56325;47.030;18.518;2023-05-03T02:28:57;100711.87;;;14.05;99.12
69214;BME280;56325;47.030;18.518;2023-05-03T02:31:32;100712.47;;;14.33;97.35
69214;BME280;56325;47.030;18.518;2023-05-03T02:34:11;100705.75;;;14.25;97.20
69214;BME280;56325;47.030;18.518;2023-05-03T02:36:45;100703.88;;;14.07;98.23
69214;BME280;56325;47.030;18.518;2023-05-03T02:39:20;100702.53;;;14.26;97.61
69214;BME280;56325;47.030;18.518;2023-05-03T02:41:55;100695.84;;;14.33;96.22
69214;BME280;56325;47.030;18.518;2023-05-03T02:44:31;100703.00;;;14.01;97.85
69214;BME280;56325;47.030;18.518;2023-05-03T02:47:06;100702.81;;;14.28;96.99
69214;BME280;56325;47.030;18.518;2023-05-03T02:49:42;100694.69;;;14.25;96.77
69214;BME280;56325;47.030;18.518;2023-05-03T02:52:17;100701.22;;;14.36;96.16
69214;BME280;56325;47.030;18.518;2023-05-03T02:54:51;100701.87;;;14.07;96.79
69214;BME280;56325;47.030;18.518;2023-05-03T02:57:26;100692.81;;;14.07;98.44
69214;BME280;56325;47.030;18.518;2023-05-03T03:00:04;100699.53;;;14.15;97.57
69214;BME280;56325;47.030;18.518;2023-05-03T03:02:39;100700.19;;;14.10;97.51
69214;BME280;56325;47.030;18.518;2023-05-03T03:05:14;100701.47;;;14.24;96.70
69214;BME280;56325;47.030;18.518;2023-05-03T03:07:50;100695.84;;;14.33;96.22
69214;BME280;56325;47.030;18.518;2023-05-03T03:10:25;100704.03;;;14.27;96.49
69214;BME280;56325;47.030;18.518;2023-05-03T03:13:00;100703.53;;;14.14;97.91
69214;BME280;56325;47.030;18.518;2023-05-03T03:15:36;100701.47;;;14.48;95.94
69214;BME280;56325;47.030;18.518;2023-05-03T03:18:10;100693.16;;;14.48;95.27
69214;BME280;56325;47.030;18.518;2023-05-03T03:20:45;100696.97;;;15.73;97.40
69214;BME280;56325;47.030;18.518;2023-05-03T03:23:20;100698.59;;;15.30;91.24
69214;BME280;56325;47.030;18.518;2023-05-03T03:25:54;100704.53;;;14.79;92.57
69214;BME280;56325;47.030;18.518;2023-05-03T03:28:29;100705.09;;;14.83;93.21
69214;BME280;56325;47.030;18.518;2023-05-03T03:31:06;100697.09;;;14.56;94.50
69214;BME280;56325;47.030;18.518;2023-05-03T03:33:41;100718.06;;;14.48;95.14
69214;BME280;56325;47.030;18.518;2023-05-03T03:36:16;100714.87;;;14.16;96.94
69214;BME280;56325;47.030;18.518;2023-05-03T03:38:51;100719.63;;;14.39;95.98
69214;BME280;56325;47.030;18.518;2023-05-03T03:41:26;100722.47;;;14.30;96.32
69214;BME280;56325;47.030;18.518;2023-05-03T03:44:00;100722.66;;;14.51;95.75
69214;BME280;56325;47.030;18.518;2023-05-03T03:46:37;100731.41;;;14.25;96.29
69214;BME280;56325;47.030;18.518;2023-05-03T03:49:11;100745.19;;;14.34;96.37
69214;BME280;56325;47.030;18.518;2023-05-03T03:51:46;100737.91;;;14.46;95.03
69214;BME280;56325;47.030;18.518;2023-05-03T03:54:21;100743.53;;;14.52;95.14
69214;BME280;56325;47.030;18.518;2023-05-03T03:56:57;100731.25;;;14.53;95.34
69214;BME280;56325;47.030;18.518;2023-05-03T03:59:31;100746.50;;;14.48;95.64
69214;BME280;56325;47.030;18.518;2023-05-03T04:02:08;100746.59;;;14.54;95.50
69214;BME280;56325;47.030;18.518;2023-05-03T04:04:43;100739.19;;;14.60;94.70
69214;BME280;56325;47.030;18.518;2023-05-03T04:07:20;100745.47;;;14.36;97.02
69214;BME280;56325;47.030;18.518;2023-05-03T04:09:55;100746.78;;;14.26;96.82
69214;BME280;56325;47.030;18.518;2023-05-03T04:12:30;100751.47;;;14.35;96.90
69214;BME280;56325;47.030;18.518;2023-05-03T04:15:07;100745.84;;;14.29;96.52
69214;BME280;56325;47.030;18.518;2023-05-03T04:17:43;100732.47;;;14.28;97.39
69214;BME280;56325;47.030;18.518;2023-05-03T04:20:18;100745.00;;;14.14;97.79
69214;BME280;56325;47.030;18.518;2023-05-03T04:22:53;100734.91;;;14.11;98.49
69214;BME280;56325;47.030;18.518;2023-05-03T04:25:28;100736.62;;;15.00;100.00
69214;BME280;56325;47.030;18.518;2023-05-03T04:28:04;100753.78;;;15.49;93.22
69214;BME280;56325;47.030;18.518;2023-05-03T04:30:40;100757.59;;;14.77;94.33
69214;BME280;56325;47.030;18.518;2023-05-03T04:33:17;100756.91;;;15.71;97.37
69214;BME280;56325;47.030;18.518;2023-05-03T04:35:53;100759.84;;;15.18;91.11
69214;BME280;56325;47.030;18.518;2023-05-03T04:38:27;100764.31;;;14.71;94.03
69214;BME280;56325;47.030;18.518;2023-05-03T04:41:03;100761.06;;;15.02;93.18
69214;BME280;56325;47.030;18.518;2023-05-03T04:43:39;100761.16;;;14.93;93.17
69214;BME280;56325;47.030;18.518;2023-05-03T04:46:13;100772.78;;;14.67;94.57
69214;BME280;56325;47.030;18.518;2023-05-03T04:48:50;100769.53;;;14.69;94.70
69214;BME280;56325;47.030;18.518;2023-05-03T04:51:25;100778.22;;;14.62;95.21
69214;BME280;56325;47.030;18.518;2023-05-03T04:54:00;100773.72;;;14.64;94.91
69214;BME280;56325;47.030;18.518;2023-05-03T04:56:35;100778.66;;;14.46;96.19
69214;BME280;56325;47.030;18.518;2023-05-03T04:59:10;100782.00;;;14.50;96.32
69214;BME280;56325;47.030;18.518;2023-05-03T05:01:45;100778.28;;;14.53;96.54
69214;BME280;56325;47.030;18.518;2023-05-03T05:04:22;100786.56;;;14.29;97.76
69214;BME280;56325;47.030;18.518;2023-05-03T05:06:57;100787.00;;;14.60;96.66
69214;BME280;56325;47.030;18.518;2023-05-03T05:09:32;100782.59;;;14.54;97.33
69214;BME280;56325;47.030;18.518;2023-05-03T05:12:07;100786.81;;;14.64;96.27
69214;BME280;56325;47.030;18.518;2023-05-03T05:14:43;100789.81;;;14.51;97.25
69214;BME280;56325;47.030;18.518;2023-05-03T05:17:18;100791.19;;;14.56;97.32
69214;BME280;56325;47.030;18.518;2023-05-03T05:19:55;100796.13;;;14.52;96.41
69214;BME280;56325;47.030;18.518;2023-05-03T05:22:30;100801.72;;;14.42;97.69
69214;BME280;56325;47.030;18.518;2023-05-03T05:25:06;100796.72;;;14.56;97.20
69214;BME280;56325;47.030;18.518;2023-05-03T05:27:41;100805.25;;;14.67;95.78
69214;BME280;56325;47.030;18.518;2023-05-03T05:30:16;100809.25;;;14.42;98.01
69214;BME280;56325;47.030;18.518;2023-05-03T05:32:52;100807.97;;;14.52;97.88
69214;BME280;56325;47.030;18.518;2023-05-03T05:35:28;100809.00;;;14.55;97.44
69214;BME280;56325;47.030;18.518;2023-05-03T05:38:02;100811.59;;;14.34;98.26
69214;BME280;56325;47.030;18.518;2023-05-03T05:40:37;100817.22;;;14.40;99.08
69214;BME280;56325;47.030;18.518;2023-05-03T05:43:12;100821.41;;;14.35;98.24
69214;BME280;56325;47.030;18.518;2023-05-03T05:45:48;100816.78;;;14.41;98.90
69214;BME280;56325;47.030;18.518;2023-05-03T05:48:23;100822.84;;;14.55;97.60
69214;BME280;56325;47.030;18.518;2023-05-03T05:50:59;100822.69;;;14.58;97.14
69214;BME280;56325;47.030;18.518;2023-05-03T05:53:34;100828.25;;;14.73;100.00
69214;BME280;56325;47.030;18.518;2023-05-03T05:56:09;100828.25;;;15.26;94.33
69214;BME280;56325;47.030;18.518;2023-05-03T05:58:44;100831.06;;;15.02;95.41
69214;BME280;56325;47.030;18.518;2023-05-03T06:03:00;100821.47;;;16.42;88.83
69214;BME280;56325;47.030;18.518;2023-05-03T06:05:35;100821.47;;;16.42;88.83
69214;BME280;56325;47.030;18.518;2023-05-03T06:08:10;100833.22;;;15.66;91.72
69214;BME280;56325;47.030;18.518;2023-05-03T06:10:45;100823.81;;;15.05;94.58
69214;BME280;56325;47.030;18.518;2023-05-03T06:13:20;100833.56;;;15.00;94.58
69214;BME280;56325;47.030;18.518;2023-05-03T06:15:55;100833.47;;;15.09;94.42
69214;BME280;56325;47.030;18.518;2023-05-03T06:18:31;100835.16;;;14.92;95.67
69214;BME280;56325;47.030;18.518;2023-05-03T06:21:05;100832.81;;;14.76;95.52
69214;BME280;56325;47.030;18.518;2023-05-03T06:23:41;100841.88;;;14.62;97.34
69214;BME280;56325;47.030;18.518;2023-05-03T06:26:16;100840.41;;;14.52;97.82
69214;BME280;56325;47.030;18.518;2023-05-03T06:28:50;100839.53;;;14.84;96.22
69214;BME280;56325;47.030;18.518;2023-05-03T06:31:26;100843.03;;;14.70;96.66
69214;BME280;56325;47.030;18.518;2023-05-03T06:34:02;100847.88;;;14.60;97.19
69214;BME280;56325;47.030;18.518;2023-05-03T06:36:37;100857.59;;;14.56;97.64
69214;BME280;56325;47.030;18.518;2023-05-03T06:39:12;100857.44;;;14.74;97.23
69214;BME280;56325;47.030;18.518;2023-05-03T06:41:46;100859.03;;;14.90;96.45
69214;BME280;56325;47.030;18.518;2023-05-03T06:44:22;100856.44;;;14.86;95.37
69214;BME280;56325;47.030;18.518;2023-05-03T06:46:57;100870.41;;;15.45;97.89
69214;BME280;56325;47.030;18.518;2023-05-03T06:49:33;100858.34;;;15.92;91.07
69214;BME280;56325;47.030;18.518;2023-05-03T06:52:08;100859.28;;;16.04;92.64
69214;BME280;56325;47.030;18.518;2023-05-03T06:54:43;100864.22;;;16.15;90.16
69214;BME280;56325;47.030;18.518;2023-05-03T06:57:18;100864.19;;;15.50;91.99
69214;BME280;56325;47.030;18.518;2023-05-03T06:59:53;100868.78;;;15.83;91.90
69214;BME280;56325;47.030;18.518;2023-05-03T07:02:27;100873.47;;;15.62;92.72
69214;BME280;56325;47.030;18.518;2023-05-03T07:05:04;100882.53;;;15.48;92.96
69214;BME280;56325;47.030;18.518;2023-05-03T07:07:39;100867.91;;;15.62;92.72
69214;BME280;56325;47.030;18.518;2023-05-03T07:10:14;100866.84;;;15.89;92.31
69214;BME280;56325;47.030;18.518;2023-05-03T07:12:48;100870.97;;;15.79;91.82
69214;BME280;56325;47.030;18.518;2023-05-03T07:15:23;100855.84;;;15.80;92.60
69214;BME280;56325;47.030;18.518;2023-05-03T07:17:58;100852.12;;;15.68;93.22
69214;BME280;56325;47.030;18.518;2023-05-03T07:20:34;100859.50;;;15.86;92.03
69214;BME280;56325;47.030;18.518;2023-05-03T07:23:08;100858.62;;;15.94;91.65
69214;BME280;56325;47.030;18.518;2023-05-03T07:25:43;100858.31;;;16.07;90.70
69214;BME280;56325;47.030;18.518;2023-05-03T07:28:19;100850.28;;;15.94;90.98
69214;BME280;56325;47.030;18.518;2023-05-03T07:30:54;100850.09;;;16.33;90.70
69214;BME280;56325;47.030;18.518;2023-05-03T07:33:29;100851.69;;;16.60;91.20
69214;BME280;56325;47.030;18.518;2023-05-03T07:36:06;100850.66;;;16.57;87.97
69214;BME280;56325;47.030;18.518;2023-05-03T07:38:41;100851.72;;;16.39;88.78
69214;BME280;56325;47.030;18.518;2023-05-03T07:41:15;100843.66;;;16.62;89.25
69214;BME280;56325;47.030;18.518;2023-05-03T07:43:51;100853.16;;;16.55;87.27
69214;BME280;56325;47.030;18.518;2023-05-03T07:46:26;100861.97;;;16.33;88.38
69214;BME280;56325;47.030;18.518;2023-05-03T07:49:04;100856.09;;;16.46;88.26
69214;BME280;56325;47.030;18.518;2023-05-03T07:51:40;100846.59;;;16.93;87.47
69214;BME280;56325;47.030;18.518;2023-05-03T07:54:15;100840.13;;;17.28;87.64
69214;BME280;56325;47.030;18.518;2023-05-03T07:56:49;100850.41;;;16.96;85.19
69214;BME280;56325;47.030;18.518;2023-05-03T07:59:27;100846.03;;;16.69;86.76
69214;BME280;56325;47.030;18.518;2023-05-03T08:02:01;100853.25;;;17.01;84.95
69214;BME280;56325;47.030;18.518;2023-05-03T08:04:37;100848.66;;;16.98;84.60
69214;BME280;56325;47.030;18.518;2023-05-03T08:07:13;100849.28;;;17.08;85.28
69214;BME280;56325;47.030;18.518;2023-05-03T08:09:49;100851.47;;;17.24;84.82
69214;BME280;56325;47.030;18.518;2023-05-03T08:12:25;100852.66;;;17.18;85.72
69214;BME280;56325;47.030;18.518;2023-05-03T08:15:00;100858.44;;;17.14;85.33
69214;BME280;56325;47.030;18.518;2023-05-03T08:17:40;100852.56;;;17.32;84.61
69214;BME280;56325;47.030;18.518;2023-05-03T08:20:15;100862.41;;;17.08;84.20
69214;BME280;56325;47.030;18.518;2023-05-03T08:22:53;100862.34;;;17.02;85.10
69214;BME280;56325;47.030;18.518;2023-05-03T08:25:29;100856.25;;;17.24;85.56
69214;BME280;56325;47.030;18.518;2023-05-03T08:28:03;100860.13;;;17.06;84.82
69214;BME280;56325;47.030;18.518;2023-05-03T08:30:39;100864.75;;;17.15;84.36
69214;BME280;56325;47.030;18.518;2023-05-03T08:33:14;100855.50;;;17.23;85.34
69214;BME280;56325;47.030;18.518;2023-05-03T08:35:48;100871.00;;;17.61;83.92
69214;BME280;56325;47.030;18.518;2023-05-03T08:38:24;100859.72;;;17.71;83.47
69214;BME280;56325;47.030;18.518;2023-05-03T08:41:06;100863.87;;;17.81;82.59
69214;BME280;56325;47.030;18.518;2023-05-03T08:43:43;100861.78;;;17.76;82.56
69214;BME280;56325;47.030;18.518;2023-05-03T08:46:19;100873.28;;;17.63;82.95
69214;BME280;56325;47.030;18.518;2023-05-03T08:48:54;100862.38;;;17.85;83.74
69214;BME280;56325;47.030;18.518;2023-05-03T08:51:28;100868.97;;;17.88;83.57
69214;BME280;56325;47.030;18.518;2023-05-03T08:54:05;100858.25;;;17.75;82.08
69214;BME280;56325;47.030;18.518;2023-05-03T08:56:41;100867.59;;;17.72;80.44
69214;BME280;56325;47.030;18.518;2023-05-03T08:59:16;100868.53;;;17.95;81.84
69214;BME280;56325;47.030;18.518;2023-05-03T09:01:50;100871.66;;;18.08;82.24
69214;BME280;56325;47.030;18.518;2023-05-03T09:04:31;100864.69;;;18.29;81.64
69214;BME280;56325;47.030;18.518;2023-05-03T09:07:08;100867.72;;;18.31;81.83
69214;BME280;56325;47.030;18.518;2023-05-03T09:09:43;100864.72;;;18.35;80.87
69214;BME280;56325;47.030;18.518;2023-05-03T09:12:33;100865.88;;;18.12;79.45
69214;BME280;56325;47.030;18.518;2023-05-03T09:15:20;100875.88;;;18.41;80.05
69214;BME280;56325;47.030;18.518;2023-05-03T09:18:08;100874.28;;;18.28;79.87
69214;BME280;56325;47.030;18.518;2023-05-03T09:20:43;100883.91;;;18.27;77.88
69214;BME280;56325;47.030;18.518;2023-05-03T09:23:29;100872.50;;;18.25;77.98
69214;BME280;56325;47.030;18.518;2023-05-03T09:26:06;100880.81;;;18.14;76.74
69214;BME280;56325;47.030;18.518;2023-05-03T09:28:41;100876.16;;;18.00;77.15
69214;BME280;56325;47.030;18.518;2023-05-03T09:31:15;100872.19;;;18.12;77.10
69214;BME280;56325;47.030;18.518;2023-05-03T09:33:51;100875.16;;;18.46;74.74
69214;BME280;56325;47.030;18.518;2023-05-03T09:36:25;100880.09;;;18.62;76.04
69214;BME280;56325;47.030;18.518;2023-05-03T09:39:15;100874.63;;;18.42;75.66
69214;BME280;56325;47.030;18.518;2023-05-03T09:41:50;100873.56;;;18.33;75.68
69214;BME280;56325;47.030;18.518;2023-05-03T09:44:41;100884.91;;;18.24;75.93
69214;BME280;56325;47.030;18.518;2023-05-03T09:47:16;100885.41;;;18.23;75.57
69214;BME280;56325;47.030;18.518;2023-05-03T09:49:51;100878.88;;;18.31;76.10
69214;BME280;56325;47.030;18.518;2023-05-03T09:52:28;100873.84;;;18.35;74.89
69214;BME280;56325;47.030;18.518;2023-05-03T09:55:05;100877.03;;;18.17;76.02
69214;BME280;56325;47.030;18.518;2023-05-03T09:57:42;100884.41;;;18.26;75.63
69214;BME280;56325;47.030;18.518;2023-05-03T10:00:21;100883.44;;;18.34;77.12
69214;BME280;56325;47.030;18.518;2023-05-03T10:02:59;100881.37;;;18.66;78.83
69214;BME280;56325;47.030;18.518;2023-05-03T10:05:43;100873.16;;;18.52;75.32
69214;BME280;56325;47.030;18.518;2023-05-03T10:08:27;100879.19;;;18.02;75.68
69214;BME280;56325;47.030;18.518;2023-05-03T10:11:07;100881.13;;;18.27;75.33
69214;BME280;56325;47.030;18.518;2023-05-03T10:13:44;100868.13;;;18.56;74.44
69214;BME280;56325;47.030;18.518;2023-05-03T10:16:24;100877.13;;;18.82;75.28
69214;BME280;56325;47.030;18.518;2023-05-03T10:19:06;100875.13;;;18.88;75.31
69214;BME280;56325;47.030;18.518;2023-05-03T10:21:54;100869.09;;;18.95;76.64
69214;BME280;56325;47.030;18.518;2023-05-03T10:24:33;100873.94;;;19.06;75.14
69214;BME280;56325;47.030;18.518;2023-05-03T10:27:10;100872.91;;;19.15;74.42
69214;BME280;56325;47.030;18.518;2023-05-03T10:29:52;100872.69;;;19.29;74.43
69214;BME280;56325;47.030;18.518;2023-05-03T10:32:29;100876.31;;;19.52;74.56
69214;BME280;56325;47.030;18.518;2023-05-03T10:35:08;100873.25;;;19.50;74.12
69214;BME280;56325;47.030;18.518;2023-05-03T10:37:43;100873.94;;;19.17;73.39
69214;BME280;56325;47.030;18.518;2023-05-03T10:40:18;100871.81;;;18.84;75.13
69214;BME280;56325;47.030;18.518;2023-05-03T10:42:54;100874.81;;;18.70;75.87
69214;BME280;56325;47.030;18.518;2023-05-03T10:45:31;100869.38;;;18.55;76.42
69214;BME280;56325;47.030;18.518;2023-05-03T10:48:17;100874.66;;;18.47;77.36
69214;BME280;56325;47.030;18.518;2023-05-03T10:50:55;100872.38;;;18.46;77.12
69214;BME280;56325;47.030;18.518;2023-05-03T10:53:37;100874.44;;;18.51;76.12
69214;BME280;56325;47.030;18.518;2023-05-03T10:56:13;100879.66;;;18.38;76.79
69214;BME280;56325;47.030;18.518;2023-05-03T10:58:48;100878.63;;;18.35;77.10
69214;BME280;56325;47.030;18.518;2023-05-03T11:01:29;100874.75;;;18.21;77.31
69214;BME280;56325;47.030;18.518;2023-05-03T11:04:06;100876.66;;;17.98;76.80
69214;BME280;56325;47.030;18.518;2023-05-03T11:06:43;100879.16;;;17.96;77.83
69214;BME280;56325;47.030;18.518;2023-05-03T11:09:19;100872.72;;;18.22;77.72
69214;BME280;56325;47.030;18.518;2023-05-03T11:11:54;100873.22;;;18.20;77.17
69214;BME280;56325;47.030;18.518;2023-05-03T11:14:28;100871.44;;;18.12;77.18
69214;BME280;56325;47.030;18.518;2023-05-03T11:17:04;100872.69;;;18.11;76.65
69214;BME280;56325;47.030;18.518;2023-05-03T11:19:41;100867.00;;;17.94;78.30
69214;BME280;56325;47.030;18.518;2023-05-03T11:22:17;100875.94;;;18.04;77.48
69214;BME280;56325;47.030;18.518;2023-05-03T11:24:52;100853.97;;;18.11;77.74
69214;BME280;56325;47.030;18.518;2023-05-03T11:27:26;100869.47;;;17.60;78.23
69214;BME280;56325;47.030;18.518;2023-05-03T11:30:01;100861.59;;;17.27;79.47
69214;BME280;56325;47.030;18.518;2023-05-03T11:32:37;100868.34;;;17.21;80.24
69214;BME280;56325;47.030;18.518;2023-05-03T11:35:12;100865.62;;;17.26;80.27
69214;BME280;56325;47.030;18.518;2023-05-03T11:37:47;100863.56;;;17.21;79.92
69214;BME280;56325;47.030;18.518;2023-05-03T11:40:22;100864.31;;;17.22;81.14
69214;BME280;56325;47.030;18.518;2023-05-03T11:42:58;100870.75;;;17.08;81.48
69214;BME280;56325;47.030;18.518;2023-05-03T11:45:40;100864.00;;;17.14;81.92
69214;BME280;56325;47.030;18.518;2023-05-03T11:48:18;100868.66;;;17.02;82.87
69214;BME280;56325;47.030;18.518;2023-05-03T11:50:53;100867.87;;;17.22;84.55
69214;BME280;56325;47.030;18.518;2023-05-03T11:53:28;100864.91;;;17.06;83.87
69214;BME280;56325;47.030;18.518;2023-05-03T11:56:05;100872.75;;;16.87;83.93
69214;BME280;56325;47.030;18.518;2023-05-03T11:58:51;100865.72;;;16.51;83.91
69214;BME280;56325;47.030;18.518;2023-05-03T12:01:26;100869.50;;;16.68;84.01
69214;BME280;56325;47.030;18.518;2023-05-03T12:04:03;100865.91;;;16.82;84.20
69214;BME280;56325;47.030;18.518;2023-05-03T12:06:38;100868.47;;;16.65;85.08
69214;BME280;56325;47.030;18.518;2023-05-03T12:09:17;100866.56;;;16.97;84.82
69214;BME280;56325;47.030;18.518;2023-05-03T12:11:55;100874.22;;;16.82;84.81
69214;BME280;56325;47.030;18.518;2023-05-03T12:14:55;100873.25;;;16.65;84.06
69214;BME280;56325;47.030;18.518;2023-05-03T12:17:35;100875.88;;;16.94;83.80
69214;BME280;56325;47.030;18.518;2023-05-03T12:20:18;100877.47;;;17.01;83.21
69214;BME280;56325;47.030;18.518;2023-05-03T12:22:58;100870.84;;;17.45;82.36
69214;BME280;56325;47.030;18.518;2023-05-03T12:25:35;100870.06;;;17.44;80.83
69214;BME280;56325;47.030;18.518;2023-05-03T12:28:12;100872.69;;;17.01;80.77
69214;BME280;56325;47.030;18.518;2023-05-03T12:30:49;100873.03;;;17.35;81.09
69214;BME280;56325;47.030;18.518;2023-05-03T12:33:25;100870.56;;;17.43;79.76
69214;BME280;56325;47.030;18.518;2023-05-03T12:36:02;100864.44;;;17.33;80.14
69214;BME280;56325;47.030;18.518;2023-05-03T12:38:41;100858.97;;;17.18;79.85
69214;BME280;56325;47.030;18.518;2023-05-03T12:41:16;100864.44;;;17.33;79.29
69214;BME280;56325;47.030;18.518;2023-05-03T12:44:10;100856.00;;;17.53;78.98
69214;BME280;56325;47.030;18.518;2023-05-03T12:46:49;100864.94;;;17.89;78.77
69214;BME280;56325;47.030;18.518;2023-05-03T12:49:25;100851.69;;;18.10;77.06
69214;BME280;56325;47.030;18.518;2023-05-03T12:52:01;100855.25;;;17.53;nan
69214;BME280;56325;47.030;18.518;2023-05-03T12:54:56;100845.66;;;17.54;77.37
69214;BME280;56325;47.030;18.518;2023-05-03T12:57:36;100844.34;;;17.75;77.60
69214;BME280;56325;47.030;18.518;2023-05-03T13:00:13;100840.75;;;17.69;76.52
69214;BME280;56325;47.030;18.518;2023-05-03T13:02:52;100849.03;;;17.63;76.09
69214;BME280;56325;47.030;18.518;2023-05-03T13:05:32;100833.16;;;18.01;76.44
69214;BME280;56325;47.030;18.518;2023-05-03T13:08:10;100837.84;;;18.26;74.36
69214;BME280;56325;47.030;18.518;2023-05-03T13:10:53;100829.34;;;17.98;74.77
69214;BME280;56325;47.030;18.518;2023-05-03T13:13:28;100829.72;;;18.17;75.01
69214;BME280;56325;47.030;18.518;2023-05-03T13:16:04;100820.88;;;17.82;75.05
69214;BME280;56325;47.030;18.518;2023-05-03T13:18:40;100821.00;;;17.67;75.43
69214;BME280;56325;47.030;18.518;2023-05-03T13:21:17;100819.53;;;17.72;74.99
69214;BME280;56325;47.030;18.518;2023-05-03T13:23:53;100817.66;;;17.63;75.25
69214;BME280;56325;47.030;18.518;2023-05-03T13:26:28;100813.16;;;17.65;75.03
69214;BME280;56325;47.030;18.518;2023-05-03T13:29:03;100808.50;;;17.57;75.06